Terminal Aerodrome Forecast
Issued by NWS

Home | Current Version | Previous Version | Text Only | Print | Product List | Glossary On
Versions: 1 2 3 4 5 6 7 8 9 10 11 12 13 14
000
FTUS45 KREV 261740
TAFTRK
TAF
KTRK 261740Z 2618/2718 21011G19KT P6SM BKN040 OVC080
     FM262200 22010G16KT P6SM VCSH BKN035 OVC070
     FM270300 21006KT 5SM -SHRASN BKN030 OVC050
      TEMPO 2704/2708 2SM -SN BKN012 OVC025
     FM271200 VRB04KT P6SM VCSH SCT015 OVC035=

USA.gov is the U.S. government's official web portal to all federal, state and local government web resources and services.